Time;durP1;ratioP1;P1;durP2;ratioP2;P2;SDS_P1;SDS_P2;PMS_P1;PMS_P2;Temp;Humidity;BMP_temperature;BMP_pressure;BME280_temperature;BME280_humidity;BME280_pressure;Samples;Min_cycle;Max_cycle;Signal;HPM_P1;HPM_P2
2020/12/30 00:00:51;;;;;;;5.93;1.85;;;307.40;1971.20;;;;;;5099159;28;20032;-63
2020/12/30 00:03:17;;;;;;;4.78;2.13;;;307.40;1971.20;;;;;;5099424;28;20097;-64
2020/12/30 00:05:43;;;;;;;5.07;1.63;;;307.50;1945.60;;;;;;5099354;28;20414;-63
2020/12/30 00:08:08;;;;;;;4.43;2.92;;;307.50;1971.20;;;;;;5098809;28;20336;-63
2020/12/30 00:10:34;;;;;;;6.55;1.70;;;307.50;1945.60;;;;;;5098995;28;20027;-65
2020/12/30 00:13:01;;;;;;;3.15;1.50;;;307.50;1945.60;;;;;;5099167;28;20053;-63
2020/12/30 00:15:26;;;;;;;3.80;1.75;;;307.50;1945.60;;;;;;5098907;28;20028;-65
2020/12/30 00:17:52;;;;;;;4.88;1.80;;;307.50;1945.60;;;;;;5098554;28;20031;-64
2020/12/30 00:20:20;;;;;;;6.05;1.77;;;307.50;1945.60;;;;;;5098745;28;20161;-64
2020/12/30 00:22:47;;;;;;;5.57;2.13;;;307.50;1945.60;;;;;;5097950;28;20110;-64
2020/12/30 00:25:14;;;;;;;3.90;1.60;;;307.50;1945.60;;;;;;5098676;28;20693;-65
2020/12/30 00:27:42;;;;;;;6.38;2.33;;;307.50;1945.60;;;;;;5098665;28;20051;-67
2020/12/30 00:30:12;;;;;;;4.55;2.13;;;307.50;1945.60;;;;;;5098619;28;20024;-64
2020/12/30 00:32:40;;;;;;;3.92;1.95;;;307.50;1920.00;;;;;;5098123;28;20403;-65
2020/12/30 00:35:06;;;;;;;3.95;1.73;;;307.40;1945.60;;;;;;5098280;28;20338;-66
2020/12/30 00:37:32;;;;;;;4.63;1.95;;;307.40;1945.60;;;;;;5098233;28;20043;-66
2020/12/30 00:39:58;;;;;;;5.00;1.95;;;307.30;1945.60;;;;;;5098374;28;20031;-65
2020/12/30 00:42:31;;;;;;;3.95;1.60;;;307.30;1945.60;;;;;;5098684;28;20028;-64
2020/12/30 00:44:58;;;;;;;4.07;1.58;;;307.40;1920.00;;;;;;5098432;28;20431;-65
2020/12/30 00:47:24;;;;;;;3.35;1.50;;;307.50;1920.00;;;;;;5098285;28;20024;-65
2020/12/30 00:49:50;;;;;;;5.47;2.78;;;307.50;1894.40;;;;;;5097990;28;20032;-65
2020/12/30 00:52:15;;;;;;;5.40;1.80;;;307.50;1894.40;;;;;;5098257;28;20027;-66
2020/12/30 00:54:41;;;;;;;5.95;1.95;;;307.60;1894.40;;;;;;5098208;28;20375;-66
2020/12/30 00:57:07;;;;;;;6.90;2.55;;;307.50;1894.40;;;;;;5096596;28;20089;-66
2020/12/30 00:59:33;;;;;;;3.88;1.95;;;307.40;1920.00;;;;;;5098309;28;20111;-64
2020/12/30 01:01:59;;;;;;;5.07;2.08;;;307.30;1920.00;;;;;;5098292;28;20362;-64
2020/12/30 01:04:24;;;;;;;5.43;2.28;;;307.30;1920.00;;;;;;5097719;28;20034;-65
2020/12/30 01:06:54;;;;;;;3.88;2.03;;;307.20;1945.60;;;;;;5097200;28;20406;-66
2020/12/30 01:09:23;;;;;;;4.57;1.90;;;282.50;1920.00;;;;;;5098252;28;20471;-65
2020/12/30 01:11:49;;;;;;;5.85;2.70;;;282.40;1920.00;;;;;;5097376;28;20438;-66
2020/12/30 01:14:15;;;;;;;5.35;1.90;;;282.40;1920.00;;;;;;5097568;28;20028;-64
2020/12/30 01:16:41;;;;;;;6.07;2.10;;;282.40;1920.00;;;;;;5098132;28;20465;-64
2020/12/30 01:19:07;;;;;;;5.30;2.45;;;282.40;1920.00;;;;;;5097160;28;20174;-63
2020/12/30 01:21:42;;;;;;;4.47;1.73;;;282.30;1945.60;;;;;;5098009;28;20069;-65
2020/12/30 01:24:08;;;;;;;5.03;1.90;;;282.40;1920.00;;;;;;5097967;28;20481;-66
2020/12/30 01:26:35;;;;;;;11.35;1.80;;;282.40;1920.00;;;;;;5097343;28;20020;-65
2020/12/30 01:29:01;;;;;;;3.97;2.10;;;282.40;1920.00;;;;;;5097637;28;20040;-66
2020/12/30 01:31:31;;;;;;;4.15;2.15;;;282.30;1920.00;;;;;;5098152;28;20027;-64
2020/12/30 01:33:57;;;;;;;5.38;2.13;;;282.40;1920.00;;;;;;5097426;28;20048;-68
2020/12/30 01:36:23;;;;;;;5.60;3.08;;;282.40;1920.00;;;;;;5097495;28;20034;-64
2020/12/30 01:38:50;;;;;;;4.38;1.75;;;282.30;1920.00;;;;;;5096885;28;20081;-65
2020/12/30 01:41:17;;;;;;;5.45;2.10;;;282.30;1920.00;;;;;;5097460;28;20414;-65
2020/12/30 01:44:03;;;;;;;4.68;1.90;;;282.30;1920.00;;;;;;5097130;28;20035;-66
2020/12/30 01:46:44;;;;;;;5.82;2.35;;;282.30;1920.00;;;;;;5097494;28;20059;-65
2020/12/30 01:49:17;;;;;;;4.28;1.98;;;282.20;1920.00;;;;;;5097065;28;20028;-65
2020/12/30 01:51:44;;;;;;;4.45;2.10;;;282.20;1920.00;;;;;;5097356;28;20059;-68
2020/12/30 01:54:11;;;;;;;3.35;1.73;;;282.10;1920.00;;;;;;5096502;28;20073;-65
2020/12/30 01:56:37;;;;;;;5.13;2.22;;;282.10;1920.00;;;;;;5097016;28;20383;-65
2020/12/30 01:59:11;;;;;;;6.38;2.80;;;282.10;1945.60;;;;;;5097179;28;20295;-64
2020/12/30 02:01:39;;;;;;;5.10;2.10;;;282.00;1945.60;;;;;;5097307;28;20055;-64
2020/12/30 02:04:07;;;;;;;8.45;2.15;;;282.00;1945.60;;;;;;5097540;28;20455;-67
2020/12/30 02:06:34;;;;;;;4.60;1.92;;;282.00;1945.60;;;;;;5097468;28;20123;-64
2020/12/30 02:09:03;;;;;;;3.72;1.92;;;282.00;1945.60;;;;;;5096632;28;20121;-65
2020/12/30 02:11:29;;;;;;;6.25;2.17;;;282.10;1945.60;;;;;;5097455;28;20369;-64
2020/12/30 02:14:11;;;;;;;3.85;2.00;;;282.00;1920.00;;;;;;5096631;28;20028;-64
2020/12/30 02:16:56;;;;;;;5.13;2.13;;;282.10;1920.00;;;;;;5097080;28;20024;-64
2020/12/30 02:19:22;;;;;;;3.53;1.80;;;282.00;1920.00;;;;;;5100921;28;20034;-66
2020/12/30 02:21:49;;;;;;;3.30;1.77;;;282.00;1920.00;;;;;;5101160;28;20032;-65
2020/12/30 02:24:35;;;;;;;6.38;2.65;;;282.10;1920.00;;;;;;5101346;28;20068;-65
2020/12/30 02:27:05;;;;;;;4.97;1.55;;;282.00;1920.00;;;;;;5101315;28;20020;-66
2020/12/30 02:29:32;;;;;;;5.15;1.90;;;282.00;1945.60;;;;;;5100745;28;20061;-65
2020/12/30 02:31:59;;;;;;;5.93;2.03;;;282.00;1920.00;;;;;;5101025;28;20047;-64
2020/12/30 02:34:26;;;;;;;5.45;2.03;;;282.00;1920.00;;;;;;5100902;28;20024;-65
2020/12/30 02:36:52;;;;;;;7.05;2.42;;;282.00;1920.00;;;;;;5100266;28;20432;-64
2020/12/30 02:39:19;;;;;;;5.63;2.47;;;282.00;1920.00;;;;;;5100434;28;20119;-65
2020/12/30 02:41:46;;;;;;;6.53;2.67;;;282.00;1945.60;;;;;;5100239;28;20435;-65
2020/12/30 02:44:12;;;;;;;6.50;2.20;;;282.00;1920.00;;;;;;5100470;28;20207;-64
2020/12/30 02:46:38;;;;;;;5.32;2.17;;;282.10;1920.00;;;;;;5100606;28;20114;-64
2020/12/30 02:49:03;;;;;;;4.53;1.90;;;282.10;1920.00;;;;;;5100357;28;20034;-65
2020/12/30 02:51:29;;;;;;;5.55;2.50;;;282.00;1920.00;;;;;;5099291;28;20412;-65
2020/12/30 02:53:55;;;;;;;5.68;2.40;;;282.00;1920.00;;;;;;5100234;28;20111;-64
2020/12/30 02:56:21;;;;;;;5.65;2.50;;;281.90;1920.00;;;;;;5100494;28;20032;-65
2020/12/30 02:58:47;;;;;;;6.30;3.38;;;281.90;1945.60;;;;;;5100678;28;20059;-63
2020/12/30 03:01:14;;;;;;;5.63;2.38;;;281.90;1945.60;;;;;;5100357;28;20468;-65
2020/12/30 03:03:40;;;;;;;4.97;2.40;;;281.90;1920.00;;;;;;5100085;28;20031;-65
2020/12/30 03:06:09;;;;;;;4.15;2.50;;;281.90;1920.00;;;;;;5100299;28;20046;-64
2020/12/30 03:08:35;;;;;;;;;;;281.90;1920.00;;;;;;5100298;28;20039;-66
2020/12/30 03:11:02;;;;;;;11.18;2.40;;;281.90;1920.00;;;;;;5099894;28;19904;-64
2020/12/30 03:13:28;;;;;;;4.63;2.30;;;281.90;1920.00;;;;;;5100445;28;20027;-64
2020/12/30 03:15:54;;;;;;;4.80;2.30;;;281.90;1920.00;;;;;;5100430;28;20020;-65
2020/12/30 03:18:20;;;;;;;4.95;2.58;;;281.90;1920.00;;;;;;5099132;28;20028;-64
2020/12/30 03:20:46;;;;;;;5.63;2.58;;;281.90;1920.00;;;;;;5100581;28;20326;-64
2020/12/30 03:23:12;;;;;;;3.70;2.20;;;282.00;1920.00;;;;;;5099690;28;20028;-65
2020/12/30 03:25:38;;;;;;;7.90;3.47;;;282.00;1920.00;;;;;;5098383;28;20090;-65
2020/12/30 03:28:03;;;;;;;5.47;2.60;;;282.00;1894.40;;;;;;5098557;28;20024;-68
2020/12/30 03:30:29;;;;;;;5.63;2.63;;;282.00;1920.00;;;;;;5098982;28;20028;-64
2020/12/30 03:32:55;;;;;;;3.80;2.15;;;282.00;1894.40;;;;;;5099341;28;20417;-63
2020/12/30 03:35:25;;;;;;;4.60;2.17;;;282.00;1894.40;;;;;;5099120;28;20065;-67
2020/12/30 03:37:55;;;;;;;5.30;2.63;;;282.00;1894.40;;;;;;5099172;28;20073;-64
2020/12/30 03:40:21;;;;;;;5.95;2.10;;;282.10;1894.40;;;;;;5099532;28;20028;-65
2020/12/30 03:42:47;;;;;;;4.95;2.05;;;282.10;1894.40;;;;;;5099862;28;20087;-66
2020/12/30 03:45:13;;;;;;;3.97;1.85;;;282.10;1868.80;;;;;;5099289;28;20028;-64
2020/12/30 03:47:39;;;;;;;4.28;2.25;;;282.20;1868.80;;;;;;5098941;28;20342;-65
2020/12/30 03:50:05;;;;;;;5.90;2.33;;;282.20;1868.80;;;;;;5099428;28;20034;-65
2020/12/30 03:52:31;;;;;;;3.85;2.10;;;282.20;1868.80;;;;;;5099394;28;20107;-65
2020/12/30 03:54:58;;;;;;;5.15;2.40;;;282.20;1868.80;;;;;;5099059;28;20024;-67
2020/12/30 03:57:24;;;;;;;4.78;2.53;;;282.20;1868.80;;;;;;5099280;28;20024;-65
2020/12/30 03:59:49;;;;;;;6.65;2.38;;;282.30;1843.20;;;;;;5098663;28;20425;-66
2020/12/30 04:02:15;;;;;;;6.38;2.25;;;282.30;1843.20;;;;;;5099147;28;20032;-65
2020/12/30 04:04:41;;;;;;;6.15;2.67;;;282.30;1843.20;;;;;;5098855;28;20413;-65
2020/12/30 04:07:07;;;;;;;6.30;2.50;;;282.20;1868.80;;;;;;5098696;28;20024;-64
2020/12/30 04:09:33;;;;;;;6.75;2.53;;;282.20;1868.80;;;;;;5099069;28;20409;-69
2020/12/30 04:11:59;;;;;;;8.38;2.55;;;282.10;1868.80;;;;;;5098710;28;20024;-64
2020/12/30 04:14:24;;;;;;;5.88;2.78;;;282.20;1868.80;;;;;;5098684;28;20055;-66
2020/12/30 04:16:50;;;;;;;5.38;2.45;;;282.20;1868.80;;;;;;5097577;28;20034;-67
2020/12/30 04:19:16;;;;;;;5.90;2.33;;;282.20;1843.20;;;;;;5098782;28;20055;-67
2020/12/30 04:21:42;;;;;;;5.75;2.75;;;282.10;1843.20;;;;;;5098538;28;20513;-65
2020/12/30 04:24:07;;;;;;;6.15;2.50;;;282.20;1868.80;;;;;;5098488;28;20020;-65
2020/12/30 04:26:33;;;;;;;5.55;2.72;;;282.20;1843.20;;;;;;5098982;28;20057;-66
2020/12/30 04:28:59;;;;;;;7.75;2.80;;;282.30;1843.20;;;;;;5098756;28;20055;-67
2020/12/30 04:31:24;;;;;;;4.60;2.25;;;282.30;1843.20;;;;;;5098083;28;20106;-65
2020/12/30 04:33:50;;;;;;;7.35;1.95;;;282.40;1817.60;;;;;;5098402;28;20130;-65
2020/12/30 04:36:16;;;;;;;4.40;2.25;;;282.40;1817.60;;;;;;5098827;28;20065;-69
2020/12/30 04:38:42;;;;;;;5.45;2.50;;;282.40;1817.60;;;;;;5098424;28;20077;-64
2020/12/30 04:41:11;;;;;;;4.53;2.15;;;282.40;1817.60;;;;;;5098453;28;20411;-65
2020/12/30 04:43:39;;;;;;;4.45;2.58;;;282.30;1843.20;;;;;;5098709;28;20016;-63
2020/12/30 04:46:05;;;;;;;;;;;282.30;1843.20;;;;;;5099059;28;20032;-64
2020/12/30 04:48:34;;;;;;;10.52;2.45;;;282.30;1843.20;;;;;;5098094;28;20346;-68
2020/12/30 04:51:01;;;;;;;6.72;2.72;;;282.30;1843.20;;;;;;5098036;28;20020;-64
2020/12/30 04:53:28;;;;;;;4.45;2.30;;;282.30;1843.20;;;;;;5098228;28;20093;-66
2020/12/30 04:55:59;;;;;;;6.35;2.85;;;282.30;1843.20;;;;;;5097618;28;20016;-66
2020/12/30 04:58:28;;;;;;;10.27;2.83;;;282.20;1843.20;;;;;;5098111;28;20050;-65
2020/12/30 05:00:54;;;;;;;;;;;282.20;1843.20;;;;;;5098517;28;20469;-65
2020/12/30 05:03:28;;;;;;;19.75;12.10;;;282.20;1843.20;;;;;;5097746;28;19911;-65
2020/12/30 05:05:59;;;;;;;12.75;8.82;;;282.20;1843.20;;;;;;5098347;28;20118;-65
2020/12/30 05:08:25;;;;;;;12.80;8.50;;;282.10;1843.20;;;;;;5098266;28;20027;-65
2020/12/30 05:10:52;;;;;;;8.63;4.70;;;282.10;1868.80;;;;;;5097626;28;20098;-65
2020/12/30 05:13:20;;;;;;;56.35;40.05;;;282.00;1843.20;;;;;;5098108;28;20406;-65
2020/12/30 05:15:46;;;;;;;21.88;19.52;;;282.10;1843.20;;;;;;5097266;28;20024;-64
2020/12/30 05:18:12;;;;;;;21.70;19.38;;;282.10;1843.20;;;;;;5097729;28;20033;-65
2020/12/30 05:20:38;;;;;;;18.17;16.35;;;282.10;1843.20;;;;;;5097738;28;20032;-65
2020/12/30 05:23:08;;;;;;;6.95;5.03;;;282.10;1843.20;;;;;;5097736;28;20024;-66
2020/12/30 05:25:43;;;;;;;16.40;12.00;;;282.10;1843.20;;;;;;5097963;28;20028;-64
2020/12/30 05:28:13;;;;;;;10.80;5.60;;;282.00;1843.20;;;;;;5097888;28;20409;-66
2020/12/30 05:30:43;;;;;;;4.93;2.58;;;281.90;1868.80;;;;;;5097105;28;20117;-65
2020/12/30 05:33:10;;;;;;;5.30;2.03;;;281.90;1843.20;;;;;;5097330;28;20063;-64
2020/12/30 05:35:36;;;;;;;5.35;2.53;;;282.00;1817.60;;;;;;5097836;28;20028;-67
2020/12/30 05:38:03;;;;;;;3.90;1.67;;;282.10;1817.60;;;;;;5097241;28;20078;-65
2020/12/30 05:40:31;;;;;;;4.00;2.13;;;282.20;1792.00;;;;;;5097484;28;20032;-66
2020/12/30 05:43:13;;;;;;;9.50;2.65;;;282.10;1817.60;;;;;;5098022;28;20081;-65
2020/12/30 05:45:49;;;;;;;31.23;18.50;;;282.10;1792.00;;;;;;5097176;28;20024;-64
2020/12/30 05:48:16;;;;;;;18.08;10.50;;;282.10;1817.60;;;;;;5097727;28;20070;-65
2020/12/30 05:50:56;;;;;;;48.50;22.38;;;282.10;1817.60;;;;;;5097399;28;20031;-65
2020/12/30 05:53:24;;;;;;;65.22;40.35;;;282.00;1817.60;;;;;;5096975;28;20020;-66
2020/12/30 05:55:51;;;;;;;162.10;95.97;;;282.00;1817.60;;;;;;5097004;28;20024;-65
2020/12/30 05:58:18;;;;;;;22.17;14.32;;;282.00;1817.60;;;;;;5096868;28;20024;-65
2020/12/30 06:00:47;;;;;;;36.90;32.95;;;282.00;1817.60;;;;;;5097241;28;20085;-68
2020/12/30 06:03:14;;;;;;;9.02;7.35;;;281.90;1843.20;;;;;;5097526;28;20066;-67
2020/12/30 06:05:40;;;;;;;7.47;5.70;;;281.90;1817.60;;;;;;5097279;28;20028;-65
2020/12/30 06:08:06;;;;;;;8.90;7.05;;;281.90;1843.20;;;;;;5097481;28;20115;-65
2020/12/30 06:10:32;;;;;;;14.40;10.93;;;281.90;1843.20;;;;;;5096931;28;20434;-65
2020/12/30 06:13:00;;;;;;;10.07;6.63;;;281.80;1843.20;;;;;;5097171;28;20020;-64
2020/12/30 06:15:27;;;;;;;7.35;5.13;;;281.80;1843.20;;;;;;5097395;28;20418;-67
2020/12/30 06:18:09;;;;;;;6.40;4.80;;;281.80;1843.20;;;;;;5097116;28;20028;-64
2020/12/30 06:20:40;;;;;;;9.52;5.40;;;281.80;1843.20;;;;;;5096740;28;20039;-66
2020/12/30 06:23:10;;;;;;;14.98;9.95;;;281.80;1843.20;;;;;;5097330;28;20028;-67
2020/12/30 06:25:37;;;;;;;18.42;10.55;;;281.60;1868.80;;;;;;5097247;28;20055;-67
2020/12/30 06:28:10;;;;;;;11.05;6.90;;;281.70;1868.80;;;;;;5097047;28;20028;-65
2020/12/30 06:30:36;;;;;;;12.95;7.70;;;281.70;1868.80;;;;;;5097028;28;20028;-65
2020/12/30 06:33:03;;;;;;;12.25;6.07;;;281.70;1868.80;;;;;;5096689;28;20063;-65
2020/12/30 06:35:31;;;;;;;18.27;9.98;;;281.60;1868.80;;;;;;5097268;28;20026;-66
2020/12/30 06:37:57;;;;;;;8.90;6.18;;;281.70;1868.80;;;;;;5096929;28;20069;-65
2020/12/30 06:40:26;;;;;;;10.02;5.13;;;281.80;1843.20;;;;;;5096855;28;20028;-66
2020/12/30 06:42:57;;;;;;;9.10;5.70;;;281.70;1843.20;;;;;;5096935;28;20028;-65
2020/12/30 06:45:42;;;;;;;9.25;3.47;;;281.80;1843.20;;;;;;5096593;28;20079;-66
2020/12/30 06:48:08;;;;;;;8.68;2.70;;;281.90;1843.20;;;;;;5096581;28;20348;-66
2020/12/30 06:50:33;;;;;;;7.68;3.08;;;281.90;1843.20;;;;;;5096855;28;20110;-65
2020/12/30 06:53:23;;;;;;;4.63;2.80;;;281.90;1843.20;;;;;;5097110;28;20054;-64
2020/12/30 06:55:48;;;;;;;3.65;1.98;;;281.90;1843.20;;;;;;5096867;28;20035;-65
2020/12/30 06:58:45;;;;;;;5.13;2.08;;;281.90;1843.20;;;;;;5096935;28;20024;-66
2020/12/30 07:01:13;;;;;;;8.57;3.78;;;282.00;1817.60;;;;;;5053860;28;20033;-67
2020/12/30 07:03:39;;;;;;;10.85;6.35;;;282.00;1817.60;;;;;;5054555;28;20056;-64
2020/12/30 07:06:23;;;;;;;9.10;4.80;;;282.00;1817.60;;;;;;5057442;28;20037;-65
2020/12/30 07:08:50;;;;;;;18.05;10.98;;;282.10;1817.60;;;;;;5057707;28;20116;-64
2020/12/30 07:11:43;;;;;;;11.07;6.28;;;282.10;1817.60;;;;;;5057544;28;20033;-65
2020/12/30 07:14:16;;;;;;;9.93;4.88;;;282.20;1817.60;;;;;;5057858;28;20028;-66
2020/12/30 07:16:47;;;;;;;12.63;6.75;;;282.30;1792.00;;;;;;5057599;28;20032;-66
2020/12/30 07:19:19;;;;;;;11.48;3.03;;;282.30;1817.60;;;;;;5057644;28;20041;-64
2020/12/30 07:21:48;;;;;;;7.07;3.78;;;282.30;1792.00;;;;;;5057412;28;20033;-67
2020/12/30 07:24:19;;;;;;;7.25;3.40;;;282.40;1817.60;;;;;;5057603;28;20037;-64
2020/12/30 07:26:47;;;;;;;7.47;2.20;;;282.40;1817.60;;;;;;5057069;28;20413;-65
2020/12/30 07:29:14;;;;;;;8.38;2.90;;;282.50;1792.00;;;;;;5056706;28;20032;-64
2020/12/30 07:31:40;;;;;;;4.65;2.42;;;307.20;1817.60;;;;;;5057127;28;20063;-63
2020/12/30 07:34:20;;;;;;;7.30;3.85;;;307.20;1792.00;;;;;;5057199;28;20057;-66
2020/12/30 07:36:47;;;;;;;15.65;9.93;;;307.30;1792.00;;;;;;5064817;28;20122;-64
2020/12/30 07:39:13;;;;;;;11.55;8.52;;;307.40;1792.00;;;;;;5099208;28;20090;-64
2020/12/30 07:41:44;;;;;;;7.80;4.55;;;307.50;1766.40;;;;;;5099903;28;20027;-63
2020/12/30 07:44:10;;;;;;;16.42;9.30;;;307.50;1766.40;;;;;;5099044;28;20020;-68
2020/12/30 07:46:37;;;;;;;11.13;7.88;;;307.60;1766.40;;;;;;5099554;28;20024;-64
2020/12/30 07:49:11;;;;;;;11.80;6.80;;;307.70;1766.40;;;;;;5099752;28;20054;-66
2020/12/30 07:51:44;;;;;;;9.18;5.63;;;307.80;1766.40;;;;;;5097816;28;20303;-67
2020/12/30 07:54:13;;;;;;;14.00;8.70;;;307.90;1740.80;;;;;;5099135;28;20024;-66
2020/12/30 07:56:39;;;;;;;7.93;4.38;;;307.90;1740.80;;;;;;5098698;28;20436;-66
2020/12/30 07:59:05;;;;;;;10.63;5.30;;;307.90;1740.80;;;;;;5099216;28;20032;-65
2020/12/30 08:01:30;;;;;;;20.05;14.73;;;307.80;1740.80;;;;;;5099280;28;20066;-64
2020/12/30 08:04:08;;;;;;;12.55;7.20;;;307.90;1740.80;;;;;;5099226;28;20024;-67
2020/12/30 08:06:43;;;;;;;10.10;5.57;;;307.90;1740.80;;;;;;5098773;28;20024;-66
2020/12/30 08:09:09;;;;;;;15.82;8.52;;;307.90;1740.80;;;;;;5099017;28;20122;-65
2020/12/30 08:11:35;;;;;;;13.40;5.32;;;307.90;1766.40;;;;;;5097500;28;20028;-66
2020/12/30 08:14:08;;;;;;;12.00;4.38;;;308.00;1740.80;;;;;;5097628;28;20119;-67
2020/12/30 08:16:35;;;;;;;6.00;3.22;;;308.00;1740.80;;;;;;5098197;28;20061;-66
2020/12/30 08:19:01;;;;;;;9.88;3.80;;;308.00;1740.80;;;;;;5097954;28;20619;-66
2020/12/30 08:21:26;;;;;;;9.23;2.72;;;308.00;1740.80;;;;;;5098438;28;20031;-67
2020/12/30 08:24:10;;;;;;;10.35;5.20;;;308.00;1740.80;;;;;;5098174;28;20028;-66
2020/12/30 08:26:36;;;;;;;9.13;3.97;;;308.00;1740.80;;;;;;5098159;28;20114;-65
2020/12/30 08:29:05;;;;;;;9.30;3.85;;;308.10;1740.80;;;;;;5098379;28;20036;-65
2020/12/30 08:31:43;;;;;;;6.97;3.10;;;332.80;1766.40;;;;;;5098721;28;20020;-67
2020/12/30 08:34:16;;;;;;;9.95;5.50;;;308.10;1740.80;;;;;;5099150;28;20122;-65
2020/12/30 08:36:45;;;;;;;14.10;4.97;;;332.80;1766.40;;;;;;5098576;28;20020;-65
2020/12/30 08:39:17;;;;;;;12.35;6.55;;;332.90;1766.40;;;;;;5097917;28;20023;-67
2020/12/30 08:41:51;;;;;;;15.02;6.80;;;333.00;1740.80;;;;;;5098675;28;20036;-65
2020/12/30 08:44:19;;;;;;;11.93;4.15;;;333.10;1740.80;;;;;;5107355;27;20012;-64
2020/12/30 08:46:52;;;;;;;11.48;6.78;;;333.20;1740.80;;;;;;5113973;28;20076;-65
2020/12/30 08:49:21;;;;;;;8.68;3.45;;;333.30;1740.80;;;;;;5118418;28;20023;-66
2020/12/30 08:51:47;;;;;;;11.75;3.90;;;333.30;1740.80;;;;;;5117934;28;20106;-65
2020/12/30 08:54:19;;;;;;;13.85;5.97;;;333.40;1715.20;;;;;;5118215;28;20114;-64
2020/12/30 08:56:46;;;;;;;10.50;4.93;;;333.40;1740.80;;;;;;5118334;27;20019;-65
2020/12/30 08:59:22;;;;;;;12.43;4.80;;;333.50;1740.80;;;;;;5118033;28;20042;-63
2020/12/30 09:01:48;;;;;;;17.48;9.32;;;333.50;1715.20;;;;;;5118068;27;20028;-63
2020/12/30 09:04:15;;;;;;;17.50;11.80;;;333.50;1715.20;;;;;;5118031;28;20412;-64
2020/12/30 09:06:48;;;;;;;9.55;5.90;;;333.60;1715.20;;;;;;5117022;28;20401;-64
2020/12/30 09:09:18;;;;;;;6.78;3.15;;;333.70;1715.20;;;;;;5117360;28;20059;-64
2020/12/30 09:11:46;;;;;;;10.30;6.22;;;358.40;1689.60;;;;;;5118362;28;20019;-66
2020/12/30 09:14:23;;;;;;;8.30;1.97;;;358.50;1689.60;;;;;;5117827;28;20027;-64
2020/12/30 09:17:06;;;;;;;18.25;4.35;;;358.60;1664.00;;;;;;5117854;28;20334;-64
2020/12/30 09:19:32;;;;;;;20.65;6.88;;;358.70;1689.60;;;;;;5116707;28;20356;-65
2020/12/30 09:22:10;;;;;;;9.18;3.78;;;358.80;1638.40;;;;;;5117722;28;20034;-66
2020/12/30 09:24:43;;;;;;;5.97;2.22;;;358.80;1638.40;;;;;;5117498;28;20041;-64
2020/12/30 09:27:22;;;;;;;10.23;4.80;;;358.90;1638.40;;;;;;5116618;28;20024;-63
2020/12/30 09:30:09;;;;;;;7.38;3.58;;;359.00;1638.40;;;;;;5117885;28;20027;-67
2020/12/30 09:32:35;;;;;;;4.82;1.60;;;359.20;1612.80;;;;;;5117712;28;20058;-65
2020/12/30 09:35:05;;;;;;;8.93;2.28;;;359.20;1612.80;;;;;;5117620;28;20028;-65
2020/12/30 09:37:32;;;;;;;6.18;3.10;;;359.30;1638.40;;;;;;5118081;28;20066;-65
2020/12/30 09:40:11;;;;;;;6.68;1.65;;;384.00;1587.20;;;;;;5117626;28;20122;-65
2020/12/30 09:42:38;;;;;;;10.57;2.80;;;359.30;1587.20;;;;;;5117689;28;20035;-65
2020/12/30 09:45:09;;;;;;;10.05;5.78;;;384.00;1587.20;;;;;;5117035;28;20026;-67
2020/12/30 09:47:36;;;;;;;13.57;6.20;;;384.10;1587.20;;;;;;5117660;28;20020;-66
2020/12/30 09:50:06;;;;;;;36.22;15.27;;;384.10;1587.20;;;;;;5117493;28;20059;-64
2020/12/30 09:52:37;;;;;;;22.05;8.68;;;384.30;1612.80;;;;;;5117534;28;20031;-64
2020/12/30 09:55:04;;;;;;;13.50;3.50;;;384.70;1561.60;;;;;;5117428;28;20027;-65
2020/12/30 09:57:31;;;;;;;13.02;4.07;;;384.90;1536.00;;;;;;5117448;28;20023;-65
2020/12/30 09:59:57;;;;;;;14.48;6.43;;;409.60;1561.60;;;;;;5117509;28;20059;-65
2020/12/30 10:02:23;;;;;;;14.52;7.68;;;409.70;1561.60;;;;;;5117110;28;20067;-66
2020/12/30 10:04:48;;;;;;;7.82;2.75;;;409.60;1561.60;;;;;;5117064;28;20039;-67
2020/12/30 10:07:14;;;;;;;7.55;2.20;;;409.60;1510.40;;;;;;5117521;28;20081;-65
2020/12/30 10:09:40;;;;;;;11.98;3.15;;;409.60;1536.00;;;;;;5117150;28;20110;-66
2020/12/30 10:12:06;;;;;;;23.25;9.40;;;409.70;1536.00;;;;;;5117116;28;20027;-65
2020/12/30 10:14:31;;;;;;;9.20;2.25;;;409.80;1536.00;;;;;;5117451;28;20323;-65
2020/12/30 10:16:57;;;;;;;6.20;2.80;;;409.80;1510.40;;;;;;5117202;28;20077;-65
2020/12/30 10:19:23;;;;;;;6.50;2.53;;;409.70;1510.40;;;;;;5117503;28;20366;-65
2020/12/30 10:21:49;;;;;;;6.00;2.42;;;409.80;1536.00;;;;;;5117271;28;20038;-66
2020/12/30 10:24:15;;;;;;;4.97;2.33;;;409.70;1510.40;;;;;;5117143;28;20317;-65
2020/12/30 10:26:41;;;;;;;6.80;1.73;;;409.70;1536.00;;;;;;5117051;28;20028;-65
2020/12/30 10:29:07;;;;;;;7.07;2.10;;;409.60;1510.40;;;;;;5116857;28;20031;-65
2020/12/30 10:31:32;;;;;;;5.95;1.88;;;409.60;1510.40;;;;;;5116931;28;20098;-65
2020/12/30 10:33:58;;;;;;;5.97;2.45;;;384.90;1510.40;;;;;;5116648;28;20086;-65
2020/12/30 10:36:28;;;;;;;4.53;1.65;;;409.60;1561.60;;;;;;5116698;28;20081;-65
2020/12/30 10:38:55;;;;;;;7.60;1.70;;;409.70;1510.40;;;;;;5116793;28;20023;-66
2020/12/30 10:41:21;;;;;;;8.45;1.60;;;409.70;1510.40;;;;;;5120782;28;20114;-66
2020/12/30 10:43:47;;;;;;;9.65;1.40;;;409.70;1510.40;;;;;;5120471;28;20050;-64
2020/12/30 10:46:16;;;;;;;7.75;2.03;;;409.80;1510.40;;;;;;5119625;28;20080;-64
2020/12/30 10:48:47;;;;;;;8.43;1.60;;;409.90;1510.40;;;;;;5119989;27;20032;-64
2020/12/30 10:51:17;;;;;;;7.95;2.08;;;410.00;1484.80;;;;;;5121090;28;20067;-64
2020/12/30 10:53:44;;;;;;;12.18;2.95;;;410.00;1510.40;;;;;;5120016;28;20430;-64
2020/12/30 10:56:11;;;;;;;11.80;2.17;;;410.10;1484.80;;;;;;5120645;28;20027;-66
2020/12/30 10:58:40;;;;;;;9.32;2.22;;;410.10;1459.20;;;;;;5120623;28;20024;-65
2020/12/30 11:01:13;;;;;;;6.93;1.70;;;410.30;1459.20;;;;;;5120535;28;20027;-64
2020/12/30 11:03:41;;;;;;;4.57;2.20;;;410.40;1459.20;;;;;;5119711;28;20031;-66
2020/12/30 11:06:22;;;;;;;13.88;2.97;;;435.20;1433.60;;;;;;5120119;28;20107;-64
2020/12/30 11:08:59;;;;;;;14.93;3.78;;;435.30;1408.00;;;;;;5120374;28;20038;-63
2020/12/30 11:11:40;;;;;;;8.30;2.13;;;435.50;1408.00;;;;;;5120073;28;20019;-64
2020/12/30 11:14:24;;;;;;;6.35;1.60;;;435.70;1408.00;;;;;;5120395;28;20080;-64
2020/12/30 11:16:51;;;;;;;7.45;2.55;;;435.80;1382.40;;;;;;5120090;28;20043;-64
2020/12/30 11:19:23;;;;;;;7.65;2.70;;;436.00;1408.00;;;;;;5119866;28;20027;-65
2020/12/30 11:21:55;;;;;;;10.45;1.80;;;435.70;1408.00;;;;;;5120620;28;20034;-65
2020/12/30 11:24:22;;;;;;;12.10;2.85;;;435.20;1459.20;;;;;;5120291;28;20418;-65
2020/12/30 11:26:49;;;;;;;14.60;6.25;;;410.20;1484.80;;;;;;5118979;28;20024;-64
2020/12/30 11:29:31;;;;;;;15.98;3.08;;;410.10;1484.80;;;;;;5120309;28;20055;-64
2020/12/30 11:31:58;;;;;;;14.23;2.97;;;410.00;1510.40;;;;;;5119588;28;20049;-66
2020/12/30 11:34:25;;;;;;;8.70;3.03;;;410.20;1484.80;;;;;;5119954;28;20452;-65
2020/12/30 11:36:58;;;;;;;12.82;3.58;;;410.30;1484.80;;;;;;5105769;28;20050;-64
2020/12/30 11:39:27;;;;;;;9.30;3.42;;;410.20;1433.60;;;;;;5102434;28;20111;-63
2020/12/30 11:41:54;;;;;;;17.98;6.78;;;410.50;1433.60;;;;;;5098896;28;20388;-66
2020/12/30 11:44:29;;;;;;;14.73;5.00;;;435.50;1433.60;;;;;;5098988;28;20414;-65
2020/12/30 11:46:59;;;;;;;22.45;12.38;;;435.50;1408.00;;;;;;5099292;28;20026;-63
2020/12/30 11:49:27;;;;;;;20.42;10.48;;;435.60;1382.40;;;;;;5099205;28;20028;-65
2020/12/30 11:52:02;;;;;;;18.92;8.65;;;435.60;1382.40;;;;;;5098245;28;20027;-65
2020/12/30 11:54:39;;;;;;;15.35;2.90;;;435.50;1408.00;;;;;;5099278;28;20024;-65
2020/12/30 11:57:11;;;;;;;10.35;2.60;;;435.60;1408.00;;;;;;5098925;28;20024;-66
2020/12/30 11:59:38;;;;;;;10.23;2.67;;;435.70;1408.00;;;;;;5099122;28;20027;-65
2020/12/30 12:02:11;;;;;;;7.93;2.35;;;435.70;1408.00;;;;;;5098694;28;20114;-64
2020/12/30 12:04:46;;;;;;;17.50;6.97;;;435.60;1408.00;;;;;;5099362;28;20024;-65
2020/12/30 12:07:27;;;;;;;26.90;14.32;;;435.60;1433.60;;;;;;5098525;28;20020;-64
2020/12/30 12:10:01;;;;;;;35.70;17.10;;;435.50;1433.60;;;;;;5096522;28;20111;-67
2020/12/30 12:12:38;;;;;;;13.55;7.28;;;435.50;1433.60;;;;;;5095239;28;20024;-64
2020/12/30 12:15:16;;;;;;;17.25;5.85;;;435.60;1408.00;;;;;;5098654;28;20318;-63
2020/12/30 12:17:44;;;;;;;12.63;3.78;;;435.70;1408.00;;;;;;5099110;28;20115;-66
2020/12/30 12:20:14;;;;;;;15.95;3.63;;;435.90;1382.40;;;;;;5098696;28;20074;-66
2020/12/30 12:23:06;;;;;;;6.70;2.60;;;461.10;1382.40;;;;;;5098963;28;20028;-65